Time;durP1;ratioP1;P1;durP2;ratioP2;P2;SDS_P1;SDS_P2;PMS_P1;PMS_P2;Temp;Humidity;BMP_temperature;BMP_pressure;BME280_temperature;BME280_humidity;BME280_pressure;Samples;Min_cycle;Max_cycle;Signal;HPM_P1;HPM_P2
2022/05/20 00:01:07;;;;;;;15.50;9.60;;;;;15.60;101640.00;;;;5027238;28;20239;-67
2022/05/20 00:03:54;;;;;;;16.80;10.00;;;;;15.50;101639.00;;;;5021399;28;20590;-66
2022/05/20 00:06:40;;;;;;;18.00;10.33;;;;;15.50;101647.00;;;;5027037;28;20238;-65
2022/05/20 00:09:27;;;;;;;18.60;10.37;;;;;15.40;101636.00;;;;5013223;28;20264;-67
2022/05/20 00:12:13;;;;;;;19.00;10.53;;;;;15.50;101637.00;;;;5007148;28;20239;-68
2022/05/20 00:15:01;;;;;;;15.73;9.60;;;;;15.40;101638.00;;;;5023586;28;20255;-66
2022/05/20 00:17:47;;;;;;;18.37;9.67;;;;;15.40;101643.00;;;;4993308;28;20372;-67
2022/05/20 00:20:34;;;;;;;16.70;9.93;;;;;15.30;101633.00;;;;5022736;28;20222;-67
2022/05/20 00:23:20;;;;;;;14.77;10.07;;;;;15.30;101630.00;;;;5024449;28;20236;-67
2022/05/20 00:26:07;;;;;;;16.70;10.00;;;;;15.10;101643.00;;;;5021411;28;20369;-67
2022/05/20 00:28:53;;;;;;;16.47;9.90;;;;;15.10;101639.00;;;;5019288;28;20269;-67
2022/05/20 00:31:40;;;;;;;19.00;10.13;;;;;15.00;101629.00;;;;5025652;28;20224;-69
2022/05/20 00:34:27;;;;;;;16.77;10.03;;;;;14.90;101628.00;;;;5018497;28;20619;-67
2022/05/20 00:37:13;;;;;;;16.10;9.70;;;;;14.90;101622.00;;;;5026468;28;20704;-67
2022/05/20 00:39:59;;;;;;;16.67;9.67;;;;;14.80;101626.00;;;;5021560;28;20229;-68
2022/05/20 00:42:46;;;;;;;17.10;9.90;;;;;14.80;101628.00;;;;5020171;28;20229;-68
2022/05/20 00:45:32;;;;;;;20.13;11.27;;;;;14.70;101616.00;;;;5026259;28;20234;-68
2022/05/20 00:48:20;;;;;;;17.70;9.87;;;;;14.70;101618.00;;;;5026123;28;20241;-68
2022/05/20 00:51:10;;;;;;;17.70;9.83;;;;;14.70;101603.00;;;;5026186;28;20730;-68
2022/05/20 00:54:01;;;;;;;18.30;10.80;;;;;14.70;101604.00;;;;5026008;28;20230;-68
2022/05/20 00:56:57;;;;;;;14.93;9.37;;;;;14.60;101607.00;;;;5017067;28;20235;-69
2022/05/20 00:59:49;;;;;;;16.67;10.07;;;;;14.60;101605.00;;;;5018871;28;20679;-70
2022/05/20 01:02:36;;;;;;;16.40;9.80;;;;;14.60;101599.00;;;;5025794;28;20308;-65
2022/05/20 01:05:28;;;;;;;18.73;10.03;;;;;14.60;101597.00;;;;5025450;28;20241;-68
2022/05/20 01:08:17;;;;;;;18.67;11.03;;;;;14.50;101599.00;;;;5022298;28;20634;-66
2022/05/20 01:11:03;;;;;;;16.53;10.50;;;;;14.30;101596.00;;;;5022467;28;20229;-67
2022/05/20 01:13:49;;;;;;;17.43;11.00;;;;;14.30;101599.00;;;;5024235;28;20295;-66
2022/05/20 01:16:36;;;;;;;18.53;10.30;;;;;14.20;101597.00;;;;5025332;28;20234;-68
2022/05/20 01:19:29;;;;;;;17.27;11.17;;;;;14.20;101604.00;;;;5025137;28;20233;-67
2022/05/20 01:22:27;;;;;;;19.93;10.63;;;;;14.20;101595.00;;;;5025368;28;20228;-68
2022/05/20 01:25:16;;;;;;;17.97;10.50;;;;;14.10;101604.00;;;;5024623;28;20855;-66
2022/05/20 01:28:03;;;;;;;17.47;10.07;;;;;14.10;101607.00;;;;5025602;28;20249;-67
2022/05/20 01:30:51;;;;;;;19.60;11.10;;;;;14.10;101602.00;;;;5021493;28;20393;-67
2022/05/20 01:33:41;;;;;;;16.13;9.80;;;;;14.20;101612.00;;;;5024729;28;20229;-69
2022/05/20 01:36:28;;;;;;;16.53;10.10;;;;;14.10;101604.00;;;;5024958;28;20312;-69
2022/05/20 01:39:14;;;;;;;17.60;10.00;;;;;14.00;101613.00;;;;5025413;28;20229;-66
2022/05/20 01:42:06;;;;;;;21.87;10.43;;;;;14.00;101589.00;;;;5025454;28;20271;-68
2022/05/20 01:44:56;;;;;;;19.00;10.83;;;;;14.20;101607.00;;;;5016438;28;20253;-69
2022/05/20 01:47:50;;;;;;;17.50;9.60;;;;;13.90;101607.00;;;;5022366;28;20236;-68
2022/05/20 01:50:42;;;;;;;17.40;10.37;;;;;13.90;101600.00;;;;5024734;28;20237;-68
2022/05/20 01:53:33;;;;;;;17.93;10.10;;;;;13.80;101602.00;;;;5024741;28;20260;-68
2022/05/20 01:56:24;;;;;;;15.47;9.33;;;;;13.70;101606.00;;;;5011687;28;20703;-68
2022/05/20 01:59:18;;;;;;;16.73;9.37;;;;;13.60;101605.00;;;;5017177;28;20364;-65
2022/05/20 02:02:09;;;;;;;22.47;10.73;;;;;13.60;101606.00;;;;5020577;28;20336;-67
2022/05/20 02:05:03;;;;;;;18.93;10.30;;;;;13.50;101606.00;;;;5023247;28;20253;-68
2022/05/20 02:07:52;;;;;;;18.43;9.77;;;;;13.60;101599.00;;;;5022955;28;20652;-68
2022/05/20 02:10:44;;;;;;;22.23;10.80;;;;;13.50;101596.00;;;;5024195;28;20237;-68
2022/05/20 02:13:35;;;;;;;22.40;10.97;;;;;13.40;101594.00;;;;5024574;28;20237;-67
2022/05/20 02:16:26;;;;;;;19.03;10.83;;;;;13.40;101594.00;;;;5012774;28;20244;-68
2022/05/20 02:19:17;;;;;;;20.60;10.13;;;;;13.40;101587.00;;;;5025142;28;20228;-68
2022/05/20 02:22:08;;;;;;;19.20;10.77;;;;;13.30;101597.00;;;;5019875;28;20225;-67
2022/05/20 02:24:56;;;;;;;19.70;10.10;;;;;13.20;101577.00;;;;5020975;28;20610;-68
2022/05/20 02:27:46;;;;;;;20.40;10.00;;;;;13.20;101573.00;;;;5011425;28;20224;-68
2022/05/20 02:30:34;;;;;;;20.37;10.20;;;;;13.30;101586.00;;;;5024849;28;20261;-66
2022/05/20 02:33:24;;;;;;;18.67;10.60;;;;;13.20;101587.00;;;;5025076;28;20482;-69
2022/05/20 02:36:23;;;;;;;18.27;10.13;;;;;13.20;101587.00;;;;5025281;28;20307;-67
2022/05/20 02:39:15;;;;;;;20.37;11.30;;;;;13.20;101578.00;;;;5020617;28;20218;-69
2022/05/20 02:42:01;;;;;;;20.43;11.07;;;;;13.20;101584.00;;;;5019604;28;20282;-68
2022/05/20 02:44:48;;;;;;;21.03;10.83;;;;;13.10;101586.00;;;;5013635;28;20233;-68
2022/05/20 02:47:36;;;;;;;19.33;10.67;;;;;13.00;101577.00;;;;5024529;28;20560;-68
2022/05/20 02:50:23;;;;;;;20.97;11.43;;;;;13.10;101583.00;;;;5024463;28;20245;-67
2022/05/20 02:53:10;;;;;;;20.57;10.67;;;;;13.10;101583.00;;;;5024876;28;20241;-69
2022/05/20 02:55:57;;;;;;;20.73;10.90;;;;;13.00;101579.00;;;;5025042;28;20339;-68
2022/05/20 03:04:52;;;;;;;21.57;11.87;;;;;12.90;101572.00;;;;5004411;28;20234;-66
2022/05/20 03:07:40;;;;;;;19.43;11.57;;;;;13.00;101570.00;;;;5000492;28;20238;-68
2022/05/20 03:10:26;;;;;;;23.93;12.00;;;;;12.90;101564.00;;;;5023074;28;20312;-68
2022/05/20 03:13:13;;;;;;;22.40;11.37;;;;;12.90;101576.00;;;;5019931;28;20931;-67
2022/05/20 03:15:59;;;;;;;20.50;10.90;;;;;12.90;101562.00;;;;5022511;28;20232;-66
2022/05/20 03:18:46;;;;;;;22.57;12.20;;;;;12.80;101575.00;;;;5020547;28;20229;-67
2022/05/20 03:21:33;;;;;;;18.90;11.63;;;;;12.90;101580.00;;;;5027392;28;21212;-67
2022/05/20 03:24:21;;;;;;;20.67;10.87;;;;;13.00;101580.00;;;;5027962;28;20303;-68
2022/05/20 03:27:07;;;;;;;20.27;10.37;;;;;12.80;101584.00;;;;5025434;28;20245;-64
2022/05/20 03:29:54;;;;;;;18.77;10.43;;;;;12.70;101586.00;;;;5020803;28;20593;-67
2022/05/20 03:32:40;;;;;;;19.57;10.87;;;;;12.70;101580.00;;;;5027594;28;20284;-65
2022/05/20 03:35:26;;;;;;;20.10;10.97;;;;;12.70;101571.00;;;;5027509;28;20256;-68
2022/05/20 03:38:12;;;;;;;21.00;11.53;;;;;12.60;101575.00;;;;5028144;28;20229;-67
2022/05/20 03:41:00;;;;;;;20.27;11.00;;;;;12.60;101581.00;;;;5021483;28;20344;-66
2022/05/20 03:43:46;;;;;;;23.20;11.03;;;;;12.60;101582.00;;;;5019697;28;20694;-67
2022/05/20 03:46:33;;;;;;;18.43;9.43;;;;;12.50;101577.00;;;;5027117;28;20320;-67
2022/05/20 03:49:21;;;;;;;17.53;9.37;;;;;12.50;101585.00;;;;5019608;28;20332;-68
2022/05/20 03:52:07;;;;;;;18.47;10.60;;;;;12.50;101577.00;;;;5025891;28;20229;-68
2022/05/20 03:54:53;;;;;;;21.40;12.00;;;;;12.60;101572.00;;;;5019812;28;20229;-68
2022/05/20 03:57:41;;;;;;;20.97;10.80;;;;;12.60;101570.00;;;;5027368;28;20225;-68
2022/05/20 04:00:28;;;;;;;24.83;12.10;;;;;12.50;101560.00;;;;5027042;28;20276;-67
2022/05/20 04:03:14;;;;;;;21.40;11.70;;;;;12.50;101570.00;;;;5027225;28;20225;-67
2022/05/20 04:06:03;;;;;;;20.50;10.63;;;;;12.60;101579.00;;;;5020796;28;20234;-68
2022/05/20 04:08:49;;;;;;;23.53;12.23;;;;;12.70;101581.00;;;;5011712;28;20225;-66
2022/05/20 04:11:35;;;;;;;21.27;10.93;;;;;12.70;101579.00;;;;5026685;28;20796;-68
2022/05/20 04:14:23;;;;;;;20.63;11.40;;;;;12.70;101599.00;;;;5026523;28;20733;-68
2022/05/20 04:17:09;;;;;;;21.40;11.47;;;;;12.80;101599.00;;;;5023884;28;20225;-67
2022/05/20 04:19:56;;;;;;;17.97;10.47;;;;;12.90;101598.00;;;;5019662;28;20241;-65
2022/05/20 04:22:42;;;;;;;20.40;11.27;;;;;12.90;101596.00;;;;5025833;28;20260;-69
2022/05/20 04:25:28;;;;;;;22.70;11.30;;;;;12.90;101592.00;;;;5018888;28;20242;-67
2022/05/20 04:28:15;;;;;;;22.47;11.83;;;;;12.90;101599.00;;;;5026792;28;20225;-67
2022/05/20 04:31:05;;;;;;;22.73;11.87;;;;;13.00;101600.00;;;;5020944;28;20249;-65
2022/05/20 04:33:52;;;;;;;26.97;12.83;;;;;13.10;101592.00;;;;5018734;28;20271;-67
2022/05/20 04:36:38;;;;;;;25.97;12.47;;;;;13.20;101594.00;;;;5026200;28;20274;-66
2022/05/20 04:39:24;;;;;;;26.20;13.23;;;;;13.10;101594.00;;;;5025490;28;20312;-66
2022/05/20 04:48:22;;;;;;;20.27;11.33;;;;;13.30;101605.00;;;;5022850;28;20278;-67
2022/05/20 04:51:08;;;;;;;27.90;13.00;;;;;13.40;101602.00;;;;5012499;28;20245;-68
2022/05/20 04:56:58;;;;;;;25.93;13.60;;;;;13.60;101605.00;;;;5019245;28;20225;-68
2022/05/20 04:59:45;;;;;;;26.83;12.40;;;;;13.60;101594.00;;;;5026069;28;20256;-67
2022/05/20 05:02:32;;;;;;;27.07;12.90;;;;;13.70;101609.00;;;;5025847;28;20361;-67
2022/05/20 05:05:22;;;;;;;28.23;13.87;;;;;13.80;101607.00;;;;5023384;28;20689;-68
2022/05/20 05:08:08;;;;;;;25.20;12.73;;;;;13.80;101601.00;;;;5008294;28;20299;-67
2022/05/20 05:10:54;;;;;;;24.33;12.27;;;;;13.90;101613.00;;;;5010958;28;20389;-67
2022/05/20 05:13:41;;;;;;;24.53;11.83;;;;;14.00;101612.00;;;;5005796;28;20233;-68
2022/05/20 05:16:27;;;;;;;24.77;12.80;;;;;14.00;101615.00;;;;5005858;28;20305;-67
2022/05/20 05:19:14;;;;;;;27.17;13.50;;;;;14.20;101617.00;;;;5005433;28;20296;-66
2022/05/20 05:22:02;;;;;;;23.60;13.23;;;;;14.30;101612.00;;;;5023733;28;20303;-68
2022/05/20 05:24:48;;;;;;;26.73;13.97;;;;;14.40;101603.00;;;;5011585;28;20361;-68
2022/05/20 05:27:35;;;;;;;26.93;13.13;;;;;14.40;101595.00;;;;5023344;28;20228;-68
2022/05/20 05:30:22;;;;;;;26.87;13.43;;;;;14.50;101590.00;;;;5027283;28;20229;-69
2022/05/20 05:33:09;;;;;;;27.30;14.47;;;;;14.50;101583.00;;;;5022021;28;20225;-68
2022/05/20 05:35:56;;;;;;;28.07;14.90;;;;;14.50;101595.00;;;;5018063;28;20216;-69
2022/05/20 05:38:43;;;;;;;23.70;12.60;;;;;14.60;101595.00;;;;5011119;28;20234;-68
2022/05/20 05:41:30;;;;;;;22.17;12.90;;;;;14.60;101585.00;;;;5009389;28;20245;-69
2022/05/20 05:44:16;;;;;;;23.50;12.60;;;;;14.50;101594.00;;;;4991307;28;20289;-69
2022/05/20 05:47:02;;;;;;;25.63;14.20;;;;;14.50;101588.00;;;;4986524;28;20258;-69
2022/05/20 05:49:49;;;;;;;27.23;13.10;;;;;14.70;101596.00;;;;5011891;28;20580;-69
2022/05/20 05:52:35;;;;;;;23.93;13.70;;;;;14.80;101591.00;;;;5025253;28;20264;-69
2022/05/20 05:55:23;;;;;;;27.13;14.40;;;;;14.90;101578.00;;;;5015248;28;20596;-67
2022/05/20 05:58:10;;;;;;;21.27;12.83;;;;;14.90;101568.00;;;;5024941;28;20821;-69
2022/05/20 06:00:56;;;;;;;22.90;12.80;;;;;14.90;101562.00;;;;5011708;28;20732;-68
2022/05/20 06:03:43;;;;;;;22.77;12.60;;;;;14.80;101565.00;;;;5012298;28;20234;-67
2022/05/20 06:06:29;;;;;;;22.87;12.63;;;;;14.80;101565.00;;;;5025141;28;20233;-68
2022/05/20 06:09:15;;;;;;;26.47;12.70;;;;;15.00;101555.00;;;;5025794;28;20704;-67
2022/05/20 06:12:03;;;;;;;22.10;13.07;;;;;15.00;101557.00;;;;5018516;28;20360;-68
2022/05/20 06:14:49;;;;;;;24.00;13.33;;;;;15.00;101558.00;;;;5019572;28;20736;-67
2022/05/20 06:17:36;;;;;;;25.60;13.63;;;;;15.10;101553.00;;;;5025276;28;20236;-67
2022/05/20 06:20:24;;;;;;;29.33;15.80;;;;;15.20;101548.00;;;;5025365;28;20229;-66
2022/05/20 06:23:11;;;;;;;26.40;14.63;;;;;15.10;101541.00;;;;5017691;28;20226;-67
2022/05/20 06:25:58;;;;;;;28.47;15.07;;;;;15.00;101542.00;;;;5008981;28;20297;-66
2022/05/20 06:29:04;;;;;;;30.83;16.77;;;;;15.20;101532.00;;;;5017997;28;20222;-67
2022/05/20 06:31:50;;;;;;;29.77;16.43;;;;;15.20;101532.00;;;;5028683;28;20297;-67
2022/05/20 06:40:44;;;;;;;36.83;17.20;;;;;15.20;101523.00;;;;5028126;28;20228;-66
2022/05/20 06:43:31;;;;;;;29.77;15.10;;;;;15.20;101523.00;;;;5023122;28;20361;-66
2022/05/20 06:46:19;;;;;;;33.30;16.00;;;;;15.40;101518.00;;;;5025703;28;20241;-67
2022/05/20 06:49:15;;;;;;;33.10;16.60;;;;;15.50;101519.00;;;;5028563;28;20249;-68
2022/05/20 06:52:01;;;;;;;32.13;16.80;;;;;15.60;101517.00;;;;5020852;28;20238;-68
2022/05/20 06:55:08;;;;;;;36.63;16.57;;;;;15.70;101521.00;;;;5021600;28;20224;-68
2022/05/20 06:57:54;;;;;;;35.03;16.57;;;;;15.70;101521.00;;;;5028249;28;20673;-69
2022/05/20 07:00:40;;;;;;;33.33;15.63;;;;;15.80;101520.00;;;;5015589;28;20245;-68
2022/05/20 07:03:28;;;;;;;32.97;16.20;;;;;15.80;101524.00;;;;5015139;28;20376;-69
2022/05/20 07:06:16;;;;;;;38.33;18.00;;;;;16.00;101520.00;;;;5022284;28;20321;-69
2022/05/20 07:09:05;;;;;;;36.47;17.57;;;;;15.90;101525.00;;;;5019744;28;20289;-69
2022/05/20 07:11:52;;;;;;;32.67;16.13;;;;;16.10;101524.00;;;;5005197;28;22027;-68
2022/05/20 07:14:38;;;;;;;31.23;16.27;;;;;16.30;101533.00;;;;5007444;28;20239;-68
2022/05/20 07:17:24;;;;;;;28.83;15.40;;;;;16.30;101529.00;;;;5008148;28;20276;-69
2022/05/20 07:20:12;;;;;;;29.83;15.43;;;;;16.40;101526.00;;;;5002200;28;20234;-70
2022/05/20 07:22:59;;;;;;;28.23;14.37;;;;;16.40;101520.00;;;;5000044;28;20235;-70
2022/05/20 07:25:45;;;;;;;27.93;14.67;;;;;16.60;101520.00;;;;5007710;28;20712;-68
2022/05/20 07:28:32;;;;;;;29.20;15.23;;;;;16.60;101523.00;;;;5007887;28;20282;-69
2022/05/20 07:31:23;;;;;;;28.00;14.93;;;;;16.90;101512.00;;;;5002797;28;20227;-69
2022/05/20 07:34:09;;;;;;;26.67;14.33;;;;;16.90;101494.00;;;;5019725;28;20713;-70
2022/05/20 07:36:56;;;;;;;27.97;14.70;;;;;16.90;101491.00;;;;5027310;28;20731;-69
2022/05/20 07:39:43;;;;;;;25.90;13.13;;;;;16.90;101479.00;;;;5027524;28;20375;-69
2022/05/20 07:42:29;;;;;;;24.97;13.57;;;;;17.10;101480.00;;;;5026662;28;20278;-70
2022/05/20 07:45:17;;;;;;;24.57;13.60;;;;;17.00;101469.00;;;;5021632;28;20236;-68
2022/05/20 07:48:03;;;;;;;23.83;12.23;;;;;17.20;101445.00;;;;5022261;28;20232;-70
2022/05/20 07:50:54;;;;;;;23.63;12.17;;;;;17.20;101464.00;;;;5026289;28;20617;-69
2022/05/20 07:53:47;;;;;;;23.60;12.33;;;;;17.30;101460.00;;;;5026628;28;20249;-69
2022/05/20 07:56:36;;;;;;;21.23;12.87;;;;;17.50;101469.00;;;;5027027;28;20238;-70
2022/05/20 07:59:27;;;;;;;22.67;11.87;;;;;17.70;101463.00;;;;5012619;28;20284;-70
2022/05/20 08:02:15;;;;;;;20.47;10.70;;;;;17.80;101466.00;;;;5026250;28;20232;-69
2022/05/20 08:05:01;;;;;;;19.83;11.10;;;;;17.70;101466.00;;;;5019307;28;21105;-68
2022/05/20 08:07:48;;;;;;;19.63;11.07;;;;;17.80;101460.00;;;;5026867;28;20252;-68
2022/05/20 08:10:38;;;;;;;16.53;9.67;;;;;18.20;101452.00;;;;5008315;28;20237;-66
2022/05/20 08:13:26;;;;;;;14.10;8.60;;;;;18.40;101440.00;;;;5006787;28;20246;-69
2022/05/20 08:16:12;;;;;;;15.77;9.53;;;;;18.50;101424.00;;;;5006749;28;21118;-68
2022/05/20 08:18:59;;;;;;;12.13;7.07;;;;;18.60;101421.00;;;;4995906;28;20234;-72
2022/05/20 08:21:45;;;;;;;13.90;8.23;;;;;18.90;101419.00;;;;5005109;28;20354;-72
2022/05/20 08:24:32;;;;;;;13.37;7.23;;;;;19.00;101416.00;;;;4992683;28;20697;-72
2022/05/20 08:27:20;;;;;;;14.40;6.03;;;;;19.30;101418.00;;;;5014903;28;20234;-72
2022/05/20 08:30:09;;;;;;;12.50;6.53;;;;;19.50;101414.00;;;;5017996;28;20227;-72
2022/05/20 08:32:55;;;;;;;13.60;7.40;;;;;19.40;101410.00;;;;5018967;28;20331;-71
2022/05/20 08:35:42;;;;;;;13.87;7.00;;;;;19.70;101410.00;;;;5014416;28;20369;-73
2022/05/20 08:38:28;;;;;;;11.30;6.63;;;;;19.80;101411.00;;;;5014390;28;20230;-70
2022/05/20 08:41:18;;;;;;;11.30;6.50;;;;;19.90;101412.00;;;;5019546;28;20748;-71
2022/05/20 08:44:11;;;;;;;9.43;6.20;;;;;20.00;101393.00;;;;5017994;28;20234;-68
2022/05/20 08:47:15;;;;;;;9.30;6.17;;;;;20.10;101387.00;;;;5014070;28;20230;-69
2022/05/20 08:50:05;;;;;;;14.27;6.40;;;;;20.30;101405.00;;;;4998428;28;20242;-73
2022/05/20 08:52:54;;;;;;;10.93;6.40;;;;;20.40;101410.00;;;;5005666;28;20226;-70
2022/05/20 08:55:42;;;;;;;9.03;6.00;;;;;20.50;101401.00;;;;5025683;28;20234;-69
2022/05/20 08:58:29;;;;;;;9.63;6.27;;;;;20.40;101398.00;;;;5026115;28;20721;-68
2022/05/20 09:01:17;;;;;;;13.70;6.93;;;;;20.40;101391.00;;;;5019718;28;20225;-69
2022/05/20 09:04:05;;;;;;;10.33;6.37;;;;;20.80;101399.00;;;;5025723;28;20225;-69
2022/05/20 09:07:01;;;;;;;10.33;5.87;;;;;20.80;101389.00;;;;5025993;28;20753;-70
2022/05/20 09:09:51;;;;;;;12.13;6.57;;;;;21.00;101384.00;;;;5014187;28;20324;-70
2022/05/20 09:12:39;;;;;;;10.17;6.57;;;;;20.90;101376.00;;;;5006379;28;20246;-66
2022/05/20 09:18:37;;;;;;;9.03;5.50;;;;;21.10;101381.00;;;;5013018;28;20229;-69
2022/05/20 09:21:29;;;;;;;11.03;6.17;;;;;21.20;101365.00;;;;5020595;28;20228;-70
2022/05/20 09:24:18;;;;;;;8.73;5.03;;;;;21.60;101365.00;;;;5025551;28;20634;-70
2022/05/20 09:27:06;;;;;;;9.73;4.90;;;;;21.80;101351.00;;;;5021314;28;20312;-68
2022/05/20 09:29:58;;;;;;;9.97;4.87;;;;;22.10;101342.00;;;;5025192;28;20704;-69
2022/05/20 09:32:48;;;;;;;8.67;5.20;;;;;22.00;101329.00;;;;5025345;28;20229;-70
2022/05/20 09:35:36;;;;;;;7.37;5.07;;;;;22.10;101313.00;;;;5017397;28;20589;-70
2022/05/20 09:38:38;;;;;;;9.13;5.30;;;;;21.90;101333.00;;;;5019844;28;20233;-69
2022/05/20 09:41:25;;;;;;;9.57;5.23;;;;;22.20;101340.00;;;;5020349;28;20798;-70
2022/05/20 09:44:12;;;;;;;10.53;5.77;;;;;22.20;101346.00;;;;5013668;28;20279;-70
2022/05/20 09:47:02;;;;;;;7.87;4.77;;;;;22.50;101350.00;;;;5024207;28;20572;-70
2022/05/20 09:49:52;;;;;;;8.67;6.17;;;;;22.40;101334.00;;;;5025356;28;20239;-70
2022/05/20 09:52:52;;;;;;;9.10;4.90;;;;;22.30;101334.00;;;;5025248;28;20256;-69
2022/05/20 09:55:40;;;;;;;8.73;5.10;;;;;22.10;101327.00;;;;5007497;28;20239;-69
2022/05/20 09:58:34;;;;;;;8.90;4.83;;;;;22.20;101319.00;;;;5009322;28;20223;-70
2022/05/20 10:01:21;;;;;;;7.83;4.87;;;;;22.50;101318.00;;;;5015475;28;20226;-69
2022/05/20 10:04:15;;;;;;;7.50;5.03;;;;;22.50;101297.00;;;;5020742;28;20283;-68
2022/05/20 10:07:04;;;;;;;9.37;5.50;;;;;22.80;101294.00;;;;5029066;28;20379;-70
2022/05/20 10:09:59;;;;;;;8.17;4.90;;;;;22.90;101295.00;;;;5016191;28;20262;-70
2022/05/20 10:12:49;;;;;;;6.60;4.43;;;;;23.30;101293.00;;;;5009309;28;20236;-70
2022/05/20 10:15:41;;;;;;;11.13;5.00;;;;;23.50;101289.00;;;;5009216;28;20241;-70
2022/05/20 10:18:35;;;;;;;9.83;5.63;;;;;23.40;101270.00;;;;5021241;28;20239;-71
2022/05/20 10:21:35;;;;;;;9.90;6.00;;;;;23.40;101267.00;;;;5023531;28;20228;-71
2022/05/20 10:24:47;;;;;;;12.53;5.60;;;;;23.60;101255.00;;;;5020616;28;20295;-70
2022/05/20 10:27:41;;;;;;;9.50;5.30;;;;;23.90;101243.00;;;;5020911;28;20233;-70
2022/05/20 10:33:38;;;;;;;8.43;5.53;;;;;23.80;101242.00;;;;5021588;28;20295;-69
2022/05/20 10:36:32;;;;;;;9.60;5.23;;;;;24.10;101234.00;;;;5026452;28;20854;-71
2022/05/20 10:39:32;;;;;;;15.23;6.83;;;;;24.40;101236.00;;;;5023041;28;20280;-70
2022/05/20 10:42:49;;;;;;;10.90;6.77;;;;;24.40;101214.00;;;;5009867;28;20718;-70
2022/05/20 10:49:10;;;;;;;12.87;6.80;;;;;23.90;101205.00;;;;5005881;28;20295;-70
2022/05/20 10:52:09;;;;;;;12.80;6.87;;;;;23.70;101192.00;;;;5008376;28;20226;-69
2022/05/20 10:55:19;;;;;;;12.33;6.57;;;;;23.40;101195.00;;;;5023263;28;20368;-69
2022/05/20 10:58:36;;;;;;;12.07;7.13;;;;;23.60;101179.00;;;;5028027;28;20304;-71
2022/05/20 11:01:32;;;;;;;13.07;7.20;;;;;23.50;101178.00;;;;5015364;28;20238;-69
2022/05/20 11:04:54;;;;;;;14.43;6.50;;;;;23.20;101166.00;;;;5030991;28;20299;-69
2022/05/20 11:08:08;;;;;;;10.70;6.77;;;;;24.10;101152.00;;;;5020427;28;20327;-71
2022/05/20 11:11:07;;;;;;;13.27;7.40;;;;;24.40;101145.00;;;;5016488;28;20237;-71
2022/05/20 11:14:13;;;;;;;12.80;7.27;;;;;24.60;101128.00;;;;4992514;28;20290;-69
2022/05/20 11:17:15;;;;;;;18.70;8.43;;;;;25.00;101115.00;;;;5003549;28;20242;-70
2022/05/20 11:20:12;;;;;;;15.27;7.70;;;;;24.70;101092.00;;;;5024687;28;20229;-71
2022/05/20 11:23:33;;;;;;;14.73;7.43;;;;;24.90;101063.00;;;;5018127;28;20254;-70
2022/05/20 11:26:36;;;;;;;15.97;7.70;;;;;25.00;101073.00;;;;5023314;28;20307;-68
2022/05/20 11:29:52;;;;;;;14.90;8.10;;;;;25.10;101064.00;;;;5006440;28;20619;-70
2022/05/20 11:32:54;;;;;;;16.00;9.10;;;;;25.30;101046.00;;;;4999931;28;20241;-68
2022/05/20 11:36:02;;;;;;;17.37;9.57;;;;;25.60;101053.00;;;;5026760;28;20244;-71
2022/05/20 11:39:26;;;;;;;16.60;9.10;;;;;25.80;101037.00;;;;4996702;28;20234;-68
2022/05/20 11:42:19;;;;;;;17.57;8.93;;;;;25.80;101027.00;;;;5027733;28;20307;-69
2022/05/20 11:45:16;;;;;;;18.47;9.03;;;;;25.70;101011.00;;;;5027166;28;20232;-71
2022/05/20 11:48:41;;;;;;;13.40;8.00;;;;;25.90;101010.00;;;;5019191;28;20338;-69
2022/05/20 11:52:08;;;;;;;17.33;9.63;;;;;25.80;101010.00;;;;5016014;28;20238;-67
2022/05/20 11:54:58;;;;;;;15.70;9.50;;;;;25.80;101001.00;;;;4992353;28;20246;-68
2022/05/20 11:57:50;;;;;;;17.53;9.60;;;;;25.90;100997.00;;;;5002723;28;20262;-71
2022/05/20 12:00:40;;;;;;;13.87;8.37;;;;;26.40;100987.00;;;;5002518;28;20760;-69
2022/05/20 12:03:30;;;;;;;19.33;11.20;;;;;26.80;100995.00;;;;5021634;28;20340;-70
2022/05/20 12:06:16;;;;;;;16.97;9.73;;;;;27.00;100992.00;;;;5027309;28;20237;-70
2022/05/20 12:09:05;;;;;;;19.93;10.57;;;;;26.90;100991.00;;;;5026714;28;20438;-69
2022/05/20 12:12:25;;;;;;;20.33;10.93;;;;;27.30;100988.00;;;;5027449;28;20230;-72
2022/05/20 12:15:47;;;;;;;19.73;11.23;;;;;27.50;100970.00;;;;5006634;28;20236;-70
2022/05/20 12:24:50;;;;;;;22.88;10.98;;;;;27.90;100923.00;;;;5004694;28;20305;-69
2022/05/20 12:27:39;;;;;;;20.27;11.75;;;;;27.90;100899.00;;;;5007143;28;20230;-70
2022/05/20 12:30:36;;;;;;;21.42;13.25;;;;;27.80;100898.00;;;;5001296;28;20238;-69
2022/05/20 12:33:26;;;;;;;25.48;12.95;;;;;27.50;100892.00;;;;4989800;28;20306;-69
2022/05/20 12:36:22;;;;;;;19.20;11.90;;;;;27.10;100882.00;;;;5006810;28;20636;-69
2022/05/20 12:39:20;;;;;;;19.50;11.63;;;;;26.80;100883.00;;;;5026019;28;20232;-69
2022/05/20 12:42:21;;;;;;;25.08;12.43;;;;;26.40;100881.00;;;;5026534;28;20620;-69
2022/05/20 12:45:09;;;;;;;25.27;13.07;;;;;26.10;100876.00;;;;5020839;28;20749;-69
2022/05/20 12:47:56;;;;;;;25.52;14.52;;;;;25.80;100878.00;;;;5026368;28;20299;-69
2022/05/20 12:50:43;;;;;;;21.67;13.07;;;;;25.50;100881.00;;;;5026656;28;20249;-69
2022/05/20 12:53:31;;;;;;;25.60;13.20;;;;;25.20;100875.00;;;;5020005;28;20283;-70
2022/05/20 12:56:28;;;;;;;19.17;12.03;;;;;24.80;100864.00;;;;5018670;28;20312;-69
2022/05/20 12:59:16;;;;;;;22.27;12.03;;;;;24.70;100877.00;;;;5026138;28;20647;-69
2022/05/20 13:02:10;;;;;;;25.40;13.27;;;;;24.50;100890.00;;;;5025622;28;20233;-70
2022/05/20 13:04:59;;;;;;;22.07;12.83;;;;;24.20;100882.00;;;;5025335;28;20244;-71
2022/05/20 13:07:48;;;;;;;21.37;12.40;;;;;24.10;100879.00;;;;5025959;28;20790;-69
2022/05/20 13:10:37;;;;;;;24.20;13.53;;;;;24.00;100876.00;;;;5025885;28;20628;-69
2022/05/20 13:13:25;;;;;;;22.87;13.13;;;;;24.10;100861.00;;;;5009247;28;20233;-70
2022/05/20 13:16:14;;;;;;;25.97;13.33;;;;;23.90;100844.00;;;;5025312;28;20240;-71
2022/05/20 13:19:04;;;;;;;26.13;14.53;;;;;23.70;100833.00;;;;5025360;28;21108;-69
2022/05/20 13:21:53;;;;;;;22.37;13.07;;;;;23.40;100836.00;;;;5022927;28;20356;-70
2022/05/20 13:24:41;;;;;;;22.87;12.93;;;;;23.10;100839.00;;;;5019851;28;20245;-69
2022/05/20 13:27:28;;;;;;;18.13;10.60;;;;;22.90;100853.00;;;;5019378;28;20615;-67
2022/05/20 13:30:18;;;;;;;29.83;12.20;;;;;22.40;100846.00;;;;5026028;28;20228;-69
2022/05/20 13:33:09;;;;;;;22.47;12.57;;;;;21.90;100847.00;;;;5025610;28;20725;-69
2022/05/20 13:35:55;;;;;;;25.87;12.87;;;;;21.80;100870.00;;;;5025323;28;20315;-69
2022/05/20 13:38:46;;;;;;;27.53;13.20;;;;;21.60;100889.00;;;;5018928;28;20230;-68
2022/05/20 13:41:34;;;;;;;33.63;14.10;;;;;21.50;100885.00;;;;5019866;28;20729;-68
2022/05/20 13:44:22;;;;;;;33.23;15.17;;;;;21.50;100861.00;;;;5010190;28;20228;-69
2022/05/20 13:50:15;;;;;;;31.13;15.13;;;;;21.40;100895.00;;;;5025019;28;20709;-68
2022/05/20 13:53:01;;;;;;;33.27;16.27;;;;;21.30;100897.00;;;;5026719;28;20283;-70
2022/05/20 13:55:48;;;;;;;30.30;16.60;;;;;21.20;100902.00;;;;5018114;28;20311;-70
2022/05/20 13:58:36;;;;;;;29.10;16.40;;;;;21.20;100890.00;;;;5020913;28;20360;-67
2022/05/20 14:01:23;;;;;;;31.10;16.47;;;;;21.30;100874.00;;;;5018714;28;20743;-73
2022/05/20 14:04:09;;;;;;;35.13;17.97;;;;;21.40;100831.00;;;;5019708;28;20321;-70
2022/05/20 14:06:58;;;;;;;37.23;18.67;;;;;21.50;100834.00;;;;5019191;28;20603;-72
2022/05/20 14:09:49;;;;;;;38.50;19.13;;;;;21.60;100803.00;;;;5012256;28;20284;-69
2022/05/20 14:12:45;;;;;;;35.67;19.40;;;;;21.90;100786.00;;;;5001796;28;20226;-70
2022/05/20 14:15:41;;;;;;;39.23;19.17;;;;;22.00;100760.00;;;;5019802;28;20247;-70
2022/05/20 14:18:31;;;;;;;39.37;20.43;;;;;22.10;100754.00;;;;5018294;28;20736;-71
2022/05/20 14:21:20;;;;;;;36.20;19.90;;;;;22.30;100751.00;;;;5019294;28;20279;-70
2022/05/20 14:24:12;;;;;;;39.27;20.10;;;;;22.40;100750.00;;;;5019125;28;20710;-70
2022/05/20 14:26:58;;;;;;;38.10;19.73;;;;;22.40;100755.00;;;;5013306;28;20236;-69